Time;durP1;ratioP1;P1;durP2;ratioP2;P2;SDS_P1;SDS_P2;PMS_P1;PMS_P2;Temp;Humidity;BMP_temperature;BMP_pressure;BME280_temperature;BME280_humidity;BME280_pressure;Samples;Min_cycle;Max_cycle;Signal;HPM_P1;HPM_P2
2024/01/14 00:00:37;;;;;;;101.50;34.53;;;;;;;1.86;100.00;101467.03;4987282;28;20045;-70
2024/01/14 00:03:05;;;;;;;95.57;32.28;;;;;;;1.85;100.00;101460.97;4984566;28;20573;-70
2024/01/14 00:05:32;;;;;;;89.63;30.38;;;;;;;1.90;100.00;101454.97;4989570;28;20478;-70
2024/01/14 00:07:59;;;;;;;86.85;29.92;;;;;;;1.88;100.00;101457.53;5006431;28;20050;-70
2024/01/14 00:10:27;;;;;;;101.18;32.05;;;;;;;1.89;100.00;101450.59;4990356;28;20304;-70
2024/01/14 00:12:54;;;;;;;85.32;30.48;;;;;;;1.89;100.00;101445.41;4973156;28;20167;-69
2024/01/14 00:15:21;;;;;;;88.10;31.40;;;;;;;1.89;100.00;101435.91;4989046;28;20152;-69
2024/01/14 00:17:48;;;;;;;92.10;32.00;;;;;;;1.89;100.00;101435.00;4985262;28;20073;-69
2024/01/14 00:20:16;;;;;;;93.45;32.35;;;;;;;1.89;100.00;101441.09;4989518;28;20050;-68
2024/01/14 00:22:43;;;;;;;93.03;31.67;;;;;;;1.90;100.00;101440.25;4989827;28;20046;-68
2024/01/14 00:25:11;;;;;;;88.15;29.92;;;;;;;1.91;100.00;101442.00;4988203;28;20129;-68
2024/01/14 00:27:39;;;;;;;88.07;30.52;;;;;;;1.88;100.00;101436.75;4987170;28;20061;-68
2024/01/14 00:30:07;;;;;;;91.95;30.80;;;;;;;1.91;100.00;101433.31;4983735;28;20415;-68
2024/01/14 00:32:34;;;;;;;101.07;33.05;;;;;;;1.91;100.00;101441.09;4987185;28;20057;-69
2024/01/14 00:35:01;;;;;;;96.10;30.15;;;;;;;1.92;100.00;101432.47;4993398;28;20050;-68
2024/01/14 00:37:29;;;;;;;87.25;30.17;;;;;;;1.95;100.00;101433.38;4984178;28;20069;-68
2024/01/14 00:39:56;;;;;;;95.68;32.33;;;;;;;1.91;100.00;101415.09;4982217;28;20506;-69
2024/01/14 00:42:23;;;;;;;91.78;32.00;;;;;;;1.90;100.00;101431.56;4968845;28;20057;-68
2024/01/14 00:44:50;;;;;;;97.85;31.83;;;;;;;1.89;100.00;101422.91;4976060;28;20031;-68
2024/01/14 00:47:17;;;;;;;97.63;32.10;;;;;;;1.90;100.00;101411.66;4987622;28;20415;-69
2024/01/14 00:49:44;;;;;;;91.72;31.02;;;;;;;1.88;100.00;101415.09;4986888;28;20076;-69
2024/01/14 00:52:12;;;;;;;91.22;29.88;;;;;;;1.89;100.00;101403.78;4985573;28;20503;-69
2024/01/14 00:54:39;;;;;;;100.95;31.55;;;;;;;1.89;100.00;101402.09;4987105;28;20042;-69
2024/01/14 00:57:07;;;;;;;98.45;31.75;;;;;;;1.91;100.00;101402.09;4986470;28;20175;-69
2024/01/14 00:59:34;;;;;;;95.63;31.70;;;;;;;1.89;100.00;101402.09;4987335;28;20046;-68
2024/01/14 01:02:02;;;;;;;94.38;30.77;;;;;;;1.91;100.00;101396.91;4986803;28;20046;-69
2024/01/14 01:04:29;;;;;;;87.88;30.27;;;;;;;1.93;100.00;101400.41;4985561;28;20553;-69
2024/01/14 01:06:56;;;;;;;95.93;30.75;;;;;;;1.93;100.00;101403.91;4986705;28;20039;-68
2024/01/14 01:09:23;;;;;;;97.32;30.25;;;;;;;1.96;100.00;101408.25;4986507;28;20050;-69
2024/01/14 01:11:50;;;;;;;85.93;29.02;;;;;;;1.93;100.00;101397.81;4987800;28;20573;-69
2024/01/14 01:14:17;;;;;;;87.10;28.25;;;;;;;1.91;100.00;101394.31;4986549;28;20046;-69
2024/01/14 01:16:45;;;;;;;88.57;29.55;;;;;;;1.90;100.00;101385.63;5001470;28;20464;-69
2024/01/14 01:19:12;;;;;;;88.05;30.98;;;;;;;1.89;100.00;101375.19;4988746;28;20502;-70
2024/01/14 01:21:39;;;;;;;85.75;28.33;;;;;;;1.89;100.00;101391.69;4988948;28;20133;-70
2024/01/14 01:24:08;;;;;;;96.00;31.63;;;;;;;1.87;100.00;101380.38;4986432;28;20466;-70
2024/01/14 01:26:35;;;;;;;88.45;29.48;;;;;;;1.87;100.00;101382.97;4984353;28;20042;-69
2024/01/14 01:29:03;;;;;;;85.00;30.17;;;;;;;1.88;100.00;101386.47;4982265;28;20101;-69
2024/01/14 01:31:30;;;;;;;92.32;29.73;;;;;;;1.86;100.00;101379.53;5002492;28;20334;-69
2024/01/14 01:34:11;;;;;;;90.35;29.73;;;;;;;1.88;100.00;101373.47;4977717;28;20050;-69
2024/01/14 01:36:39;;;;;;;88.45;29.02;;;;;;;1.90;100.00;101374.34;4990352;28;20145;-69
2024/01/14 01:39:06;;;;;;;88.80;29.40;;;;;;;1.89;100.00;101370.00;4963480;28;20510;-69
2024/01/14 01:41:33;;;;;;;86.30;29.40;;;;;;;1.89;100.00;101363.09;4979046;28;20034;-69
2024/01/14 01:44:00;;;;;;;92.30;29.25;;;;;;;1.88;100.00;101360.47;4974339;28;20282;-69
2024/01/14 01:46:27;;;;;;;88.10;28.13;;;;;;;1.88;100.00;101365.69;4969383;28;20043;-69
2024/01/14 01:48:54;;;;;;;85.05;28.52;;;;;;;1.88;100.00;101347.47;4986116;28;20074;-70
2024/01/14 01:51:22;;;;;;;98.20;30.77;;;;;;;1.90;100.00;101361.34;4987363;28;20126;-70
2024/01/14 01:53:50;;;;;;;83.80;27.60;;;;;;;1.90;100.00;101358.75;4980434;28;20058;-70
2024/01/14 01:56:19;;;;;;;85.80;26.80;;;;;;;1.89;100.00;101357.00;4986295;28;20062;-70
2024/01/14 01:58:46;;;;;;;89.68;27.75;;;;;;;1.90;100.00;101348.34;4987820;28;20041;-70
2024/01/14 02:01:14;;;;;;;91.70;28.38;;;;;;;1.93;100.00;101348.41;4980968;28;20094;-70
2024/01/14 02:03:42;;;;;;;88.80;28.70;;;;;;;1.94;100.00;101344.94;4997262;28;20072;-70
2024/01/14 02:06:11;;;;;;;87.20;28.13;;;;;;;1.96;100.00;101348.44;4978556;28;20065;-70
2024/01/14 02:08:38;;;;;;;85.68;29.08;;;;;;;1.97;100.00;101342.41;4988873;28;20100;-70
2024/01/14 02:11:06;;;;;;;86.55;29.05;;;;;;;2.01;100.00;101333.75;4989845;28;20043;-70
2024/01/14 02:13:33;;;;;;;80.30;28.40;;;;;;;2.00;100.00;101340.69;4982301;28;20046;-69
2024/01/14 02:16:00;;;;;;;81.07;28.67;;;;;;;1.98;100.00;101342.41;4987619;28;20137;-70
2024/01/14 02:18:28;;;;;;;83.22;29.20;;;;;;;1.98;100.00;101338.94;5001676;28;20045;-69
2024/01/14 02:20:56;;;;;;;79.13;27.02;;;;;;;1.99;100.00;101341.56;4989119;28;20056;-69
2024/01/14 02:23:32;;;;;;;79.03;26.73;;;;;;;2.00;100.00;101339.81;4989051;28;20054;-69
2024/01/14 02:26:00;;;;;;;82.35;26.35;;;;;;;2.00;100.00;101343.31;4987467;28;20079;-68
2024/01/14 02:28:31;;;;;;;78.50;27.20;;;;;;;2.01;100.00;101338.97;4993473;28;20526;-70
2024/01/14 02:30:59;;;;;;;77.90;27.20;;;;;;;1.99;100.00;101333.75;4986455;28;20129;-68
2024/01/14 02:33:26;;;;;;;83.28;28.90;;;;;;;2.01;100.00;101325.97;4983348;28;20503;-69
2024/01/14 02:35:53;;;;;;;68.90;27.08;;;;;;;2.00;100.00;101330.31;4984543;28;20422;-70
2024/01/14 02:38:21;;;;;;;82.97;27.13;;;;;;;2.01;100.00;101323.34;4991602;28;20061;-70
2024/01/14 02:40:48;;;;;;;71.00;26.83;;;;;;;2.01;100.00;101325.97;4989679;28;20042;-70
2024/01/14 02:43:15;;;;;;;67.70;25.77;;;;;;;2.01;100.00;101315.56;4988867;28;20610;-70
2024/01/14 02:45:42;;;;;;;77.90;27.60;;;;;;;2.03;100.00;101307.78;4987056;28;20061;-70
2024/01/14 02:48:09;;;;;;;76.53;26.83;;;;;;;2.01;100.00;101310.34;4990410;28;20453;-70
2024/01/14 02:50:36;;;;;;;67.75;26.92;;;;;;;2.03;100.00;101313.00;4989652;28;20057;-71
2024/01/14 02:53:04;;;;;;;73.80;27.17;;;;;;;2.04;100.00;101312.09;4989290;28;20046;-69
2024/01/14 02:55:31;;;;;;;69.97;25.40;;;;;;;2.04;100.00;101313.00;4990720;28;20118;-70
2024/01/14 02:57:58;;;;;;;71.00;25.63;;;;;;;2.04;100.00;101314.72;4995619;28;20086;-69
2024/01/14 03:00:26;;;;;;;67.55;26.02;;;;;;;2.03;100.00;101307.78;4989064;28;20042;-71
2024/01/14 03:02:53;;;;;;;71.63;26.67;;;;;;;2.04;100.00;101304.31;4987310;28;20096;-68
2024/01/14 03:05:20;;;;;;;66.68;24.77;;;;;;;2.03;100.00;101307.78;4990462;28;20058;-69
2024/01/14 03:07:48;;;;;;;71.45;26.65;;;;;;;1.99;100.00;101289.53;4989601;28;20461;-69
2024/01/14 03:10:15;;;;;;;69.85;25.40;;;;;;;2.00;100.00;101288.69;5001255;28;20049;-68
2024/01/14 03:12:42;;;;;;;68.88;25.67;;;;;;;1.96;100.00;101286.03;4986512;28;20117;-69
2024/01/14 03:15:09;;;;;;;73.72;27.25;;;;;;;1.96;100.00;101280.81;4986941;28;20046;-68
2024/01/14 03:17:37;;;;;;;72.82;27.27;;;;;;;1.96;100.00;101280.81;4983860;28;20057;-68
2024/01/14 03:20:05;;;;;;;73.47;26.13;;;;;;;1.94;100.00;101272.13;4983548;28;20220;-69
2024/01/14 03:22:32;;;;;;;71.55;26.25;;;;;;;1.96;100.00;101280.81;4992061;28;20034;-70
2024/01/14 03:24:59;;;;;;;63.58;25.90;;;;;;;1.94;100.00;101278.19;4990906;28;20077;-69
2024/01/14 03:27:26;;;;;;;75.90;26.45;;;;;;;1.93;100.00;101271.28;4990093;28;20499;-70
2024/01/14 03:29:55;;;;;;;69.63;26.58;;;;;;;1.92;100.00;101281.63;4989147;28;20050;-70
2024/01/14 03:32:22;;;;;;;72.18;26.63;;;;;;;1.91;100.00;101272.97;4983167;28;20499;-69
2024/01/14 03:34:49;;;;;;;76.13;28.38;;;;;;;1.92;100.00;101273.84;4987424;28;20442;-70
2024/01/14 03:37:16;;;;;;;80.43;27.50;;;;;;;1.91;100.00;101269.47;4990145;28;20050;-70
2024/01/14 03:39:43;;;;;;;76.75;26.90;;;;;;;1.89;100.00;101272.06;4989567;28;20070;-70
2024/01/14 03:42:10;;;;;;;77.50;27.90;;;;;;;1.90;100.00;101260.81;5002166;28;20137;-70
2024/01/14 03:44:37;;;;;;;74.30;27.15;;;;;;;1.88;100.00;101256.47;4989491;28;20043;-70
2024/01/14 03:47:04;;;;;;;78.53;27.55;;;;;;;1.88;100.00;101239.13;4988802;28;20112;-70
2024/01/14 03:49:32;;;;;;;74.35;25.40;;;;;;;1.87;100.00;101255.56;5000893;28;20074;-70
2024/01/14 03:51:59;;;;;;;85.10;29.00;;;;;;;1.84;100.00;101261.63;4963771;28;20072;-70
2024/01/14 03:54:26;;;;;;;80.97;29.48;;;;;;;1.83;100.00;101244.28;4990950;28;20521;-70
2024/01/14 03:56:54;;;;;;;81.90;28.40;;;;;;;1.85;100.00;101247.75;4986119;28;20137;-69
2024/01/14 03:59:21;;;;;;;87.03;28.55;;;;;;;1.86;100.00;101246.03;4989243;28;20046;-70
2024/01/14 04:01:48;;;;;;;83.70;29.85;;;;;;;1.86;100.00;101241.72;4988743;28;20649;-69
2024/01/14 04:04:15;;;;;;;80.40;29.55;;;;;;;1.89;100.00;101253.88;5000473;28;20128;-70
2024/01/14 04:06:43;;;;;;;83.03;29.73;;;;;;;1.86;100.00;101241.72;4995359;28;20109;-70
2024/01/14 04:09:10;;;;;;;79.07;28.20;;;;;;;1.85;100.00;101239.97;4988800;28;20073;-70
2024/01/14 04:11:38;;;;;;;77.88;28.75;;;;;;;1.84;100.00;101246.00;4987518;28;20050;-69
2024/01/14 04:14:05;;;;;;;76.75;28.35;;;;;;;1.85;100.00;101242.56;4989371;28;20049;-70
2024/01/14 04:16:40;;;;;;;81.00;28.83;;;;;;;1.84;100.00;101240.81;4989434;28;20225;-70
2024/01/14 04:19:08;;;;;;;76.32;27.33;;;;;;;1.83;100.00;101239.06;4985403;28;20457;-70
2024/01/14 04:21:35;;;;;;;84.30;29.45;;;;;;;1.82;100.00;101232.13;4980751;28;20080;-70
2024/01/14 04:24:02;;;;;;;83.57;28.73;;;;;;;1.81;100.00;101239.91;5000578;28;20587;-69
2024/01/14 04:26:30;;;;;;;84.53;28.92;;;;;;;1.77;100.00;101231.22;5005768;28;20056;-70
2024/01/14 04:28:58;;;;;;;79.13;28.65;;;;;;;1.76;100.00;101226.84;4987870;28;20034;-70
2024/01/14 04:31:25;;;;;;;77.50;29.17;;;;;;;1.77;100.00;101223.41;4989236;28;20157;-70
2024/01/14 04:33:53;;;;;;;77.88;27.85;;;;;;;1.76;100.00;101220.78;4987218;28;20050;-70
2024/01/14 04:36:20;;;;;;;78.57;28.63;;;;;;;1.76;100.00;101213.84;5005900;28;20270;-70
2024/01/14 04:38:47;;;;;;;77.18;28.60;;;;;;;1.76;100.00;101216.47;4989702;28;20038;-70
2024/01/14 04:41:14;;;;;;;70.65;27.35;;;;;;;1.77;100.00;101213.00;4987687;28;20043;-70
2024/01/14 04:43:42;;;;;;;76.55;27.00;;;;;;;1.75;100.00;101209.50;5002091;28;20038;-70
2024/01/14 04:46:10;;;;;;;78.35;27.58;;;;;;;1.77;100.00;101212.13;4987306;28;20125;-70
2024/01/14 04:48:38;;;;;;;76.53;27.58;;;;;;;1.74;100.00;101205.16;4986864;28;20042;-69
2024/01/14 04:51:05;;;;;;;74.13;27.05;;;;;;;1.75;100.00;101209.50;4987139;28;20042;-70
2024/01/14 04:53:32;;;;;;;73.57;26.55;;;;;;;1.76;100.00;101205.16;4987490;28;20502;-70
2024/01/14 04:56:00;;;;;;;71.38;27.05;;;;;;;1.76;100.00;101208.66;4982609;28;20096;-70
2024/01/14 04:58:27;;;;;;;79.75;28.00;;;;;;;1.74;100.00;101206.88;4986908;28;20125;-69
2024/01/14 05:00:54;;;;;;;75.30;27.63;;;;;;;1.73;100.00;101206.00;4982068;28;20074;-69
2024/01/14 05:03:21;;;;;;;76.60;28.30;;;;;;;1.74;100.00;101207.75;4990668;28;20050;-69
2024/01/14 05:05:49;;;;;;;70.07;27.15;;;;;;;1.74;100.00;101202.56;4995772;28;20105;-69
2024/01/14 05:08:16;;;;;;;74.07;26.13;;;;;;;1.75;100.00;101203.41;4989393;28;20633;-69
2024/01/14 05:10:43;;;;;;;74.93;27.65;;;;;;;1.76;100.00;101198.25;4986322;28;20132;-70
2024/01/14 05:13:11;;;;;;;72.68;27.00;;;;;;;1.76;100.00;101193.06;4985480;28;20042;-69
2024/01/14 05:15:39;;;;;;;68.97;27.63;;;;;;;1.74;100.00;101202.56;4987424;28;20042;-69
2024/01/14 05:18:06;;;;;;;71.78;26.35;;;;;;;1.75;100.00;101193.91;4987819;28;20053;-69
2024/01/14 05:20:33;;;;;;;64.75;24.70;;;;;;;1.76;100.00;101192.16;4986164;28;20050;-69
2024/01/14 05:23:04;;;;;;;73.88;27.13;;;;;;;1.73;100.00;101194.75;4984225;28;20094;-70
2024/01/14 05:25:31;;;;;;;68.00;24.73;;;;;;;1.71;100.00;101194.72;4986035;28;20532;-70
2024/01/14 05:27:58;;;;;;;66.18;26.23;;;;;;;1.69;100.00;101188.63;4985629;28;20046;-70
2024/01/14 05:30:25;;;;;;;66.35;24.77;;;;;;;1.65;100.00;101182.50;5001359;28;20050;-69
2024/01/14 05:32:53;;;;;;;70.18;27.67;;;;;;;1.67;100.00;101190.34;4984935;28;20056;-69
2024/01/14 05:35:20;;;;;;;61.30;24.55;;;;;;;1.66;100.00;101186.88;4988879;28;20553;-69
2024/01/14 05:37:49;;;;;;;66.22;25.05;;;;;;;1.66;100.00;101186.00;4982100;28;20052;-69
2024/01/14 05:40:17;;;;;;;61.95;23.60;;;;;;;1.66;100.00;101179.06;4984299;28;20056;-69
2024/01/14 05:42:53;;;;;;;69.22;25.38;;;;;;;1.63;100.00;101181.63;4985663;28;20065;-69
2024/01/14 05:45:20;;;;;;;59.20;23.25;;;;;;;1.61;100.00;101172.97;4985047;28;20130;-69
2024/01/14 05:47:50;;;;;;;64.57;25.13;;;;;;;1.61;100.00;101166.88;4988212;28;20038;-69
2024/01/14 05:50:20;;;;;;;62.85;23.90;;;;;;;1.59;100.00;101169.47;4996478;28;20133;-69
2024/01/14 05:52:47;;;;;;;51.83;21.80;;;;;;;1.59;100.00;101171.16;4993311;28;20042;-69
2024/01/14 05:55:14;;;;;;;57.67;22.75;;;;;;;1.60;100.00;101165.13;4986776;28;20042;-69
2024/01/14 05:57:42;;;;;;;53.60;21.60;;;;;;;1.59;100.00;101163.38;4987208;28;20050;-69
2024/01/14 06:00:10;;;;;;;54.33;21.98;;;;;;;1.57;100.00;101155.56;4988200;28;20058;-67
2024/01/14 06:02:39;;;;;;;53.90;22.70;;;;;;;1.55;100.00;101154.66;4983300;28;20042;-68
2024/01/14 06:05:08;;;;;;;47.97;20.95;;;;;;;1.54;100.00;101153.81;4986040;28;20096;-70
2024/01/14 06:07:35;;;;;;;52.15;22.10;;;;;;;1.54;100.00;101145.13;4983829;28;20125;-69
2024/01/14 06:10:05;;;;;;;51.47;20.70;;;;;;;1.51;100.00;101147.72;4984838;28;20125;-69
2024/01/14 06:12:32;;;;;;;54.72;22.67;;;;;;;1.53;100.00;101145.97;4985088;28;20129;-69
2024/01/14 06:15:00;;;;;;;52.88;20.50;;;;;;;1.52;100.00;101139.94;4990650;28;20046;-70
2024/01/14 06:17:28;;;;;;;50.03;20.60;;;;;;;1.51;100.00;101148.56;4991194;28;20039;-68
2024/01/14 06:19:58;;;;;;;40.05;16.92;;;;;;;1.52;100.00;101152.91;4988572;28;20073;-69
2024/01/14 06:22:25;;;;;;;45.67;19.73;;;;;;;1.49;100.00;101155.47;4990039;28;20043;-69
2024/01/14 06:24:52;;;;;;;47.58;18.88;;;;;;;1.48;100.00;101148.53;5006046;28;20049;-67
2024/01/14 06:27:26;;;;;;;48.13;19.73;;;;;;;1.47;100.00;101151.13;4986537;28;20402;-68
2024/01/14 06:29:53;;;;;;;44.67;18.48;;;;;;;1.45;100.00;101138.13;4990308;28;20825;-68
2024/01/14 06:32:23;;;;;;;53.72;20.05;;;;;;;1.46;100.00;101142.47;4989002;28;20578;-68
2024/01/14 06:34:50;;;;;;;48.40;19.40;;;;;;;1.47;100.00;101140.72;4989998;28;20042;-66
2024/01/14 06:37:22;;;;;;;51.58;20.98;;;;;;;1.47;100.00;101136.41;4989059;28;20065;-68
2024/01/14 06:39:49;;;;;;;50.53;20.23;;;;;;;1.48;100.00;101132.94;4991485;28;20573;-68
2024/01/14 06:42:20;;;;;;;44.92;19.13;;;;;;;1.48;100.00;101132.06;4988236;28;20125;-67
2024/01/14 06:44:48;;;;;;;44.63;19.27;;;;;;;1.43;100.00;101124.22;4990850;28;20450;-68
2024/01/14 06:47:15;;;;;;;49.78;19.73;;;;;;;1.43;100.00;101119.03;4989411;28;20077;-69
2024/01/14 06:49:42;;;;;;;47.15;18.80;;;;;;;1.44;100.00;101112.09;4990561;28;20049;-68
2024/01/14 06:52:09;;;;;;;46.33;19.25;;;;;;;1.42;100.00;101112.09;4990814;28;20043;-68
2024/01/14 06:54:39;;;;;;;51.67;20.17;;;;;;;1.39;100.00;101110.34;4990557;28;20042;-68
2024/01/14 06:57:07;;;;;;;52.53;20.65;;;;;;;1.35;100.00;101105.94;4990629;28;20129;-69
2024/01/14 06:59:37;;;;;;;51.28;20.85;;;;;;;1.33;100.00;101107.63;4987882;28;20041;-67
2024/01/14 07:02:14;;;;;;;58.67;20.98;;;;;;;1.31;100.00;101098.97;4986704;28;20510;-69
2024/01/14 07:04:48;;;;;;;47.95;20.08;;;;;;;1.32;100.00;101094.66;4987549;28;20509;-69
2024/01/14 07:07:15;;;;;;;53.50;20.30;;;;;;;1.28;100.00;101096.34;4985396;28;20042;-69
2024/01/14 07:09:42;;;;;;;48.97;20.27;;;;;;;1.29;100.00;101099.78;4988503;28;20556;-70
2024/01/14 07:12:09;;;;;;;54.90;21.85;;;;;;;1.32;100.00;101097.25;5004322;28;20545;-70
2024/01/14 07:14:37;;;;;;;54.25;21.10;;;;;;;1.33;100.00;101091.19;4984651;28;20038;-67
2024/01/14 07:17:04;;;;;;;47.80;20.15;;;;;;;1.32;100.00;101081.66;4989247;28;20054;-68
2024/01/14 07:19:32;;;;;;;53.88;20.35;;;;;;;1.31;100.00;101092.91;4990926;28;20053;-68
2024/01/14 07:21:59;;;;;;;50.60;19.00;;;;;;;1.30;100.00;101085.94;4989148;28;20086;-68
2024/01/14 07:24:26;;;;;;;53.60;20.77;;;;;;;1.30;100.00;101088.56;4972716;28;20634;-69
2024/01/14 07:26:53;;;;;;;49.00;18.63;;;;;;;1.28;100.00;101088.53;4989978;28;20156;-69
2024/01/14 07:29:20;;;;;;;55.47;21.15;;;;;;;1.29;100.00;101092.88;4992362;28;20442;-67
2024/01/14 07:31:47;;;;;;;56.60;20.95;;;;;;;1.40;100.00;101103.41;4987399;28;20042;-68
2024/01/14 07:34:14;;;;;;;52.30;21.27;;;;;;;1.59;100.00;101095.81;4990872;28;20073;-67
2024/01/14 07:36:42;;;;;;;55.97;21.38;;;;;;;1.74;100.00;101097.69;4985146;28;20120;-68
2024/01/14 07:39:09;;;;;;;57.15;22.75;;;;;;;1.86;100.00;101096.09;4990801;28;20057;-68
2024/01/14 07:41:36;;;;;;;64.55;24.05;;;;;;;1.97;100.00;101090.13;4989275;28;20121;-68
2024/01/14 07:44:05;;;;;;;56.95;22.45;;;;;;;2.09;100.00;101082.41;4986889;28;20050;-68
2024/01/14 07:46:32;;;;;;;52.75;21.40;;;;;;;2.23;100.00;101089.47;4989315;28;20097;-68
2024/01/14 07:49:00;;;;;;;50.10;20.48;;;;;;;2.32;100.00;101089.53;4990158;28;20050;-68
2024/01/14 07:51:27;;;;;;;51.20;22.13;;;;;;;2.41;100.00;101087.00;4986546;28;20042;-69
2024/01/14 07:53:54;;;;;;;47.60;19.88;;;;;;;2.48;100.00;101091.44;4996301;28;20050;-68
2024/01/14 07:56:21;;;;;;;48.00;20.42;;;;;;;2.53;100.00;101085.38;4990077;28;20054;-68
2024/01/14 07:58:49;;;;;;;50.25;20.15;;;;;;;2.57;100.00;101092.34;4990893;28;20046;-68
2024/01/14 08:01:17;;;;;;;51.30;20.30;;;;;;;2.60;100.00;101090.63;4988538;28;20649;-68
2024/01/14 08:03:44;;;;;;;47.05;19.92;;;;;;;2.64;100.00;101088.91;4989319;28;20057;-68
2024/01/14 08:06:12;;;;;;;48.95;19.40;;;;;;;2.64;100.00;101091.50;4989474;28;20595;-68
2024/01/14 08:08:39;;;;;;;49.00;20.02;;;;;;;2.66;100.00;101082.00;4988793;28;20533;-68
2024/01/14 08:11:06;;;;;;;45.70;18.35;;;;;;;2.67;100.00;101086.34;4991637;28;20437;-68
2024/01/14 08:13:33;;;;;;;44.95;18.42;;;;;;;2.68;100.00;101084.59;4986800;28;20069;-68
2024/01/14 08:16:00;;;;;;;43.38;18.90;;;;;;;2.63;100.00;101088.06;4986468;28;20096;-68
2024/01/14 08:18:30;;;;;;;43.72;17.67;;;;;;;2.61;100.00;101088.88;4987573;28;20046;-68
2024/01/14 08:20:59;;;;;;;44.88;18.75;;;;;;;2.63;100.00;101097.56;4986492;28;20054;-68
2024/01/14 08:23:32;;;;;;;44.47;18.73;;;;;;;2.65;100.00;101085.44;4986959;28;20038;-69
2024/01/14 08:26:01;;;;;;;40.00;17.90;;;;;;;2.67;100.00;101088.06;4986453;28;20584;-68
2024/01/14 08:28:35;;;;;;;45.58;18.50;;;;;;;2.66;100.00;101088.91;4987546;28;20405;-68
2024/01/14 08:31:02;;;;;;;41.17;18.23;;;;;;;2.65;100.00;101082.84;4987450;28;20065;-68
2024/01/14 08:33:30;;;;;;;42.13;17.88;;;;;;;2.65;100.00;101088.06;4988767;28;20035;-68
2024/01/14 08:35:57;;;;;;;42.60;17.73;;;;;;;2.55;100.00;101079.28;4988540;28;20043;-68
2024/01/14 08:38:25;;;;;;;45.08;17.98;;;;;;;2.37;100.00;101081.78;4988315;28;20046;-68
2024/01/14 08:40:52;;;;;;;48.92;18.58;;;;;;;2.21;100.00;101078.19;4988112;28;20565;-68
2024/01/14 08:43:19;;;;;;;44.83;17.60;;;;;;;2.09;100.00;101079.81;4987059;28;20050;-68
2024/01/14 08:45:46;;;;;;;44.40;18.05;;;;;;;1.98;100.00;101078.88;4987852;28;20042;-68
2024/01/14 08:48:15;;;;;;;43.58;18.40;;;;;;;1.93;100.00;101088.34;4985727;28;20046;-68
2024/01/14 08:50:42;;;;;;;41.25;17.50;;;;;;;1.88;100.00;101079.66;4984896;28;20082;-68
2024/01/14 08:53:09;;;;;;;48.17;19.98;;;;;;;1.84;100.00;101070.94;4985334;28;20047;-68
2024/01/14 08:55:36;;;;;;;47.35;18.58;;;;;;;1.81;100.00;101068.31;4982636;28;20190;-68
2024/01/14 08:58:04;;;;;;;43.78;18.05;;;;;;;1.78;100.00;101061.34;4986189;28;20473;-68
2024/01/14 09:00:31;;;;;;;42.83;17.98;;;;;;;1.77;100.00;101070.03;5001091;28;20126;-67
2024/01/14 09:02:59;;;;;;;45.42;18.65;;;;;;;1.76;100.00;101065.69;4986177;28;20121;-68
2024/01/14 09:05:26;;;;;;;45.08;19.00;;;;;;;1.76;100.00;101063.06;4984273;28;20041;-67
2024/01/14 09:07:54;;;;;;;42.25;17.60;;;;;;;1.74;100.00;101062.19;4986020;28;20045;-68
2024/01/14 09:10:21;;;;;;;41.03;17.92;;;;;;;1.74;100.00;101059.59;4988325;28;20034;-67
2024/01/14 09:12:49;;;;;;;47.47;18.67;;;;;;;1.78;100.00;101057.88;4988994;28;20034;-66
2024/01/14 09:15:17;;;;;;;46.28;18.30;;;;;;;1.73;100.00;101064.78;4982653;28;20100;-71
2024/01/14 09:17:44;;;;;;;48.53;18.70;;;;;;;1.72;100.00;101060.44;4987321;28;20064;-68
2024/01/14 09:20:11;;;;;;;46.95;17.42;;;;;;;1.69;100.00;101069.06;4988701;28;20046;-68
2024/01/14 09:22:39;;;;;;;42.22;18.58;;;;;;;1.66;100.00;101069.03;4987702;28;20688;-68
2024/01/14 09:25:06;;;;;;;50.10;19.63;;;;;;;1.67;100.00;101057.78;4988225;28;20047;-68
2024/01/14 09:27:35;;;;;;;46.13;19.17;;;;;;;1.65;100.00;101060.34;4987898;28;20129;-68
2024/01/14 09:30:02;;;;;;;44.47;17.70;;;;;;;1.63;100.00;101061.19;4987733;28;20046;-68
2024/01/14 09:32:30;;;;;;;48.40;18.70;;;;;;;1.60;100.00;101053.38;4988584;28;20053;-68
2024/01/14 09:34:57;;;;;;;46.58;17.83;;;;;;;1.57;100.00;101050.75;4987670;28;20060;-68
2024/01/14 09:37:24;;;;;;;46.38;18.70;;;;;;;1.54;100.00;101046.38;4987636;28;20105;-68
2024/01/14 09:39:51;;;;;;;49.45;19.67;;;;;;;1.52;100.00;101046.38;4988470;28;20046;-68
2024/01/14 09:42:32;;;;;;;44.80;18.98;;;;;;;1.52;100.00;101051.56;4987556;28;20038;-69
2024/01/14 09:45:01;;;;;;;42.80;18.20;;;;;;;1.49;100.00;101042.88;4987697;28;20082;-67
2024/01/14 09:47:32;;;;;;;49.15;18.85;;;;;;;1.48;100.00;101039.38;4986780;28;20140;-68
2024/01/14 09:50:00;;;;;;;48.65;19.17;;;;;;;1.46;100.00;101037.63;4986996;28;20058;-68
2024/01/14 09:52:33;;;;;;;40.92;18.00;;;;;;;1.45;100.00;101034.19;4985907;28;20698;-68
2024/01/14 09:55:00;;;;;;;48.58;19.50;;;;;;;1.45;100.00;101038.50;4988152;28;20050;-68
2024/01/14 09:57:32;;;;;;;46.22;17.98;;;;;;;1.45;100.00;101033.28;4987590;28;20057;-68
2024/01/14 10:00:05;;;;;;;43.88;18.45;;;;;;;1.46;100.00;101032.44;4986298;28;20569;-68
2024/01/14 10:02:36;;;;;;;49.85;18.67;;;;;;;1.49;100.00;101024.69;4986814;28;20050;-67
2024/01/14 10:05:04;;;;;;;43.75;17.63;;;;;;;1.52;100.00;101033.38;4984960;28;20073;-67
2024/01/14 10:07:33;;;;;;;43.40;17.52;;;;;;;1.53;100.00;101027.31;4986574;28;20462;-67
2024/01/14 10:10:01;;;;;;;46.35;18.23;;;;;;;1.60;100.00;101027.38;4987105;28;20522;-68
2024/01/14 10:12:29;;;;;;;44.75;18.05;;;;;;;1.62;100.00;101028.28;4986452;28;20038;-68
2024/01/14 10:15:00;;;;;;;49.65;17.85;;;;;;;1.64;100.00;101034.34;4985348;28;20053;-67
2024/01/14 10:17:28;;;;;;;46.33;18.48;;;;;;;1.65;100.00;101025.72;4981496;28;20047;-67
2024/01/14 10:19:59;;;;;;;46.58;18.67;;;;;;;1.68;100.00;101024.00;4987205;28;20096;-68
2024/01/14 10:22:27;;;;;;;51.58;19.88;;;;;;;1.73;100.00;101021.44;4988204;28;20054;-67
2024/01/14 10:24:56;;;;;;;50.85;18.90;;;;;;;1.77;100.00;101022.34;4984645;28;20046;-68
2024/01/14 10:27:26;;;;;;;43.22;17.10;;;;;;;1.77;100.00;101017.13;4988336;28;20054;-67
2024/01/14 10:30:11;;;;;;;50.28;18.73;;;;;;;1.81;100.00;101014.59;4989028;28;20043;-67
2024/01/14 10:32:40;;;;;;;51.42;19.73;;;;;;;1.79;100.00;101008.50;4980006;28;20421;-67
2024/01/14 10:35:28;;;;;;;50.67;18.98;;;;;;;1.82;100.00;101008.53;4986669;28;20039;-67
2024/01/14 10:37:57;;;;;;;62.38;29.73;;;;;;;1.84;100.00;100996.41;4987235;28;20060;-67
2024/01/14 10:40:24;;;;;;;58.47;26.77;;;;;;;1.90;100.00;100994.72;4981799;28;20046;-67
2024/01/14 10:42:52;;;;;;;55.40;25.30;;;;;;;1.92;100.00;100980.88;4984833;28;20097;-68
2024/01/14 10:45:19;;;;;;;126.05;49.83;;;;;;;1.97;100.00;100978.31;4987151;28;20046;-67
2024/01/14 10:47:49;;;;;;;231.52;83.05;;;;;;;1.99;100.00;100977.47;4975562;28;20043;-67
2024/01/14 10:50:18;;;;;;;98.20;37.33;;;;;;;2.05;100.00;100961.03;4983723;28;20074;-68
2024/01/14 10:52:54;;;;;;;104.93;41.78;;;;;;;2.10;100.00;100967.13;4982151;28;20038;-67
2024/01/14 10:55:40;;;;;;;64.47;26.23;;;;;;;2.21;100.00;100974.13;4985730;28;20065;-68
2024/01/14 10:58:23;;;;;;;125.63;48.15;;;;;;;2.19;100.00;100968.06;4986256;28;20845;-67
2024/01/14 11:00:51;;;;;;;172.63;64.90;;;;;;;2.15;100.00;100968.03;4990015;28;20066;-67
2024/01/14 11:03:20;;;;;;;70.85;28.48;;;;;;;2.15;100.00;100955.03;4989751;28;20034;-68
2024/01/14 11:05:52;;;;;;;53.83;22.40;;;;;;;2.15;100.00;100948.94;4989545;28;20053;-68
2024/01/14 11:08:23;;;;;;;125.38;46.80;;;;;;;2.13;100.00;100945.47;4989645;28;20426;-68
2024/01/14 11:10:54;;;;;;;262.33;96.90;;;;;;;2.10;100.00;100946.31;4987551;28;21027;-68
2024/01/14 11:13:29;;;;;;;121.45;43.20;;;;;;;2.09;100.00;100941.97;4989054;28;20053;-68